Time;durP1;ratioP1;P1;durP2;ratioP2;P2;SDS_P1;SDS_P2;PMS_P1;PMS_P2;Temp;Humidity;BMP_temperature;BMP_pressure;BME280_temperature;BME280_humidity;BME280_pressure;Samples;Min_cycle;Max_cycle;Signal;HPM_P1;HPM_P2
2022/09/06 00:02:01;;;;;;;8.83;7.80;;;21.90;92.80;;;;;;5051451;28;20186;-67
2022/09/06 00:04:27;;;;;;;9.30;7.10;;;21.90;92.80;;;;;;5051952;28;20177;-67
2022/09/06 00:06:53;;;;;;;7.13;6.57;;;21.90;92.70;;;;;;5052191;28;20182;-67
2022/09/06 00:09:18;;;;;;;7.77;7.10;;;21.90;92.70;;;;;;5049086;28;20677;-67
2022/09/06 00:11:44;;;;;;;8.10;6.93;;;21.90;93.00;;;;;;5052119;28;20217;-67
2022/09/06 00:14:10;;;;;;;6.90;6.20;;;22.00;93.30;;;;;;5051344;28;20177;-67
2022/09/06 00:16:35;;;;;;;7.77;7.27;;;21.90;93.40;;;;;;5042659;28;20704;-67
2022/09/06 00:19:01;;;;;;;7.83;7.20;;;22.00;93.80;;;;;;5037589;28;20197;-67
2022/09/06 00:21:29;;;;;;;7.00;6.50;;;22.00;94.20;;;;;;5052509;28;20188;-67
2022/09/06 00:23:55;;;;;;;7.53;6.93;;;22.00;94.30;;;;;;5034562;28;20539;-67
2022/09/06 00:26:21;;;;;;;8.00;7.40;;;21.90;94.20;;;;;;5033232;28;20408;-67
2022/09/06 00:28:47;;;;;;;13.90;7.23;;;21.90;94.10;;;;;;5056064;28;20252;-67
2022/09/06 00:31:19;;;;;;;7.13;6.73;;;21.90;94.00;;;;;;5055691;28;20908;-67
2022/09/06 00:33:45;;;;;;;6.77;6.37;;;21.90;93.80;;;;;;5055943;28;20886;-67
2022/09/06 00:36:11;;;;;;;7.00;6.50;;;21.90;93.80;;;;;;5055290;28;20491;-67
2022/09/06 00:38:38;;;;;;;7.00;6.40;;;21.80;93.70;;;;;;5037607;28;20228;-67
2022/09/06 00:41:05;;;;;;;7.60;6.50;;;21.80;93.90;;;;;;5035853;28;20417;-67
2022/09/06 00:43:31;;;;;;;6.70;6.20;;;21.80;94.00;;;;;;5036434;28;20555;-67
2022/09/06 00:45:58;;;;;;;6.23;5.80;;;21.80;94.10;;;;;;5036386;28;20403;-68
2022/09/06 00:48:24;;;;;;;6.90;6.40;;;21.80;94.10;;;;;;5035496;28;20756;-67
2022/09/06 00:50:54;;;;;;;6.60;6.07;;;21.80;93.90;;;;;;5036286;28;20449;-67
2022/09/06 00:53:20;;;;;;;6.90;6.43;;;21.80;93.90;;;;;;5038329;28;20462;-67
2022/09/06 00:55:47;;;;;;;7.53;7.00;;;21.80;94.30;;;;;;5056119;28;20428;-67
2022/09/06 00:58:14;;;;;;;6.77;6.27;;;21.80;94.70;;;;;;5053320;28;20456;-67
2022/09/06 01:00:39;;;;;;;8.13;7.20;;;21.90;94.30;;;;;;5037974;28;20404;-67
2022/09/06 01:03:06;;;;;;;6.67;6.27;;;21.80;94.10;;;;;;5055451;28;20936;-67
2022/09/06 01:05:53;;;;;;;7.33;6.73;;;21.80;94.10;;;;;;5055907;28;20219;-67
2022/09/06 01:08:32;;;;;;;7.33;6.73;;;21.80;94.00;;;;;;5055344;28;20462;-67
2022/09/06 01:11:03;;;;;;;8.13;7.27;;;21.80;94.90;;;;;;5038047;28;20392;-67
2022/09/06 01:13:44;;;;;;;7.20;6.70;;;21.80;94.30;;;;;;5055860;28;20412;-67
2022/09/06 01:16:34;;;;;;;7.13;6.43;;;21.80;94.20;;;;;;5055197;28;20408;-67
2022/09/06 01:19:26;;;;;;;7.80;6.90;;;21.90;94.60;;;;;;5046576;28;20436;-71
2022/09/06 01:22:04;;;;;;;7.70;7.07;;;21.90;94.90;;;;;;5035495;28;20400;-67
2022/09/06 01:24:36;;;;;;;7.17;6.67;;;21.80;95.00;;;;;;5035755;28;20397;-67
2022/09/06 01:27:39;;;;;;;7.83;7.20;;;21.80;95.90;;;;;;5035065;28;20389;-68
2022/09/06 01:30:06;;;;;;;7.43;6.83;;;21.90;96.40;;;;;;5017226;28;20408;-67
2022/09/06 01:32:52;;;;;;;7.40;6.70;;;21.90;94.80;;;;;;5045098;28;20443;-67
2022/09/06 01:35:24;;;;;;;6.50;6.00;;;21.80;94.10;;;;;;5053555;28;20412;-67
2022/09/06 01:37:49;;;;;;;6.27;5.70;;;21.90;94.60;;;;;;5052689;28;20912;-67
2022/09/06 01:40:15;;;;;;;7.10;6.60;;;21.90;93.40;;;;;;5034290;28;20430;-67
2022/09/06 01:42:43;;;;;;;6.30;5.80;;;21.90;92.20;;;;;;5035342;28;20548;-67
2022/09/06 01:45:13;;;;;;;6.33;5.90;;;22.00;91.80;;;;;;5034692;28;20401;-67
2022/09/06 01:48:03;;;;;;;6.40;6.00;;;22.00;91.60;;;;;;5046316;28;20927;-67
2022/09/06 01:50:57;;;;;;;6.43;5.93;;;22.10;91.50;;;;;;5050216;28;20542;-66
2022/09/06 01:53:43;;;;;;;6.30;5.80;;;22.10;91.70;;;;;;5044720;28;20814;-67
2022/09/06 01:56:37;;;;;;;6.23;5.83;;;22.10;91.80;;;;;;5054473;28;20761;-67
2022/09/06 01:59:09;;;;;;;6.40;5.90;;;22.10;91.80;;;;;;5052507;28;20444;-68
2022/09/06 02:01:58;;;;;;;6.40;6.00;;;22.10;91.50;;;;;;5036760;28;20916;-67
2022/09/06 02:04:35;;;;;;;6.10;5.70;;;22.10;91.50;;;;;;5018950;28;20743;-66
2022/09/06 02:07:15;;;;;;;6.63;5.97;;;22.10;91.70;;;;;;5054803;28;20396;-67
2022/09/06 02:09:45;;;;;;;6.37;5.87;;;22.10;91.40;;;;;;5054854;28;20392;-67
2022/09/06 02:12:13;;;;;;;6.47;5.80;;;22.10;91.40;;;;;;5054099;28;20416;-67
2022/09/06 02:14:45;;;;;;;6.53;5.80;;;22.10;91.20;;;;;;5051180;28;20433;-67
2022/09/06 02:17:16;;;;;;;6.13;5.70;;;22.10;91.20;;;;;;5049010;28;21066;-67
2022/09/06 02:19:44;;;;;;;6.20;5.70;;;22.10;91.20;;;;;;5053531;28;20436;-67
2022/09/06 02:22:14;;;;;;;7.67;5.13;;;22.10;90.90;;;;;;5053938;28;20415;-67
2022/09/06 02:24:43;;;;;;;5.40;5.03;;;22.10;89.50;;;;;;5054683;28;20745;-67
2022/09/06 02:27:10;;;;;;;5.50;5.17;;;22.10;89.70;;;;;;5053830;28;20416;-67
2022/09/06 02:29:36;;;;;;;5.57;5.20;;;22.20;89.30;;;;;;5054490;28;20415;-67
2022/09/06 02:32:17;;;;;;;5.20;4.90;;;22.20;90.00;;;;;;5054586;28;20412;-67
2022/09/06 02:34:45;;;;;;;5.60;5.10;;;22.20;90.10;;;;;;5054440;28;20908;-67
2022/09/06 02:37:12;;;;;;;5.13;4.83;;;22.30;90.00;;;;;;5044479;28;20507;-67
2022/09/06 02:39:38;;;;;;;5.90;5.40;;;22.30;90.50;;;;;;5036315;28;20453;-67
2022/09/06 02:42:06;;;;;;;5.17;4.77;;;22.40;91.70;;;;;;5054166;28;20400;-67
2022/09/06 02:44:32;;;;;;;5.47;5.07;;;22.40;90.80;;;;;;5050129;28;20788;-67
2022/09/06 02:46:58;;;;;;;8.30;4.63;;;22.40;90.80;;;;;;5046904;28;20424;-67
2022/09/06 02:49:23;;;;;;;5.07;4.67;;;22.40;91.30;;;;;;5053135;28;20248;-67
2022/09/06 02:51:49;;;;;;;5.83;5.43;;;22.40;91.30;;;;;;5054081;28;20162;-67
2022/09/06 02:54:15;;;;;;;5.50;4.70;;;22.40;91.40;;;;;;5053579;28;20614;-67
2022/09/06 02:56:41;;;;;;;13.50;6.00;;;22.40;91.40;;;;;;5053779;28;20227;-67
2022/09/06 02:59:06;;;;;;;5.90;5.40;;;22.40;91.30;;;;;;5053215;28;20193;-68
2022/09/06 03:01:33;;;;;;;5.83;5.23;;;22.40;90.80;;;;;;5050323;28;20268;-67
2022/09/06 03:03:59;;;;;;;4.87;4.57;;;22.40;90.50;;;;;;5053715;28;20695;-67
2022/09/06 03:06:25;;;;;;;5.60;5.30;;;22.40;91.10;;;;;;5053101;28;20405;-67
2022/09/06 03:08:51;;;;;;;5.63;5.00;;;22.30;91.20;;;;;;5053632;28;20558;-67
2022/09/06 03:11:16;;;;;;;5.47;5.00;;;22.30;91.80;;;;;;5052988;28;20174;-67
2022/09/06 03:13:42;;;;;;;9.77;5.97;;;22.30;92.00;;;;;;5053900;28;20165;-67
2022/09/06 03:16:08;;;;;;;5.50;5.20;;;22.40;91.60;;;;;;5053237;28;20161;-68
2022/09/06 03:18:34;;;;;;;6.33;5.90;;;22.30;92.30;;;;;;5052482;28;20198;-67
2022/09/06 03:20:59;;;;;;;5.83;5.50;;;22.40;91.50;;;;;;5052699;28;20236;-67
2022/09/06 03:23:27;;;;;;;6.50;5.90;;;22.30;91.10;;;;;;5051563;28;20687;-67
2022/09/06 03:25:53;;;;;;;6.50;5.90;;;22.30;91.20;;;;;;5052303;28;20209;-67
2022/09/06 03:28:20;;;;;;;6.83;6.43;;;22.30;91.20;;;;;;5052657;28;20415;-67
2022/09/06 03:30:50;;;;;;;6.47;5.97;;;22.30;91.50;;;;;;5047546;28;20437;-67
2022/09/06 03:33:17;;;;;;;7.73;7.20;;;22.30;91.90;;;;;;5052676;28;20404;-67
2022/09/06 03:35:53;;;;;;;7.33;6.63;;;22.30;91.80;;;;;;5050170;28;20447;-67
2022/09/06 03:38:19;;;;;;;7.70;7.00;;;22.30;92.10;;;;;;5031710;28;20526;-67
2022/09/06 03:40:46;;;;;;;6.53;6.13;;;22.30;91.80;;;;;;5032431;28;20955;-67
2022/09/06 03:43:13;;;;;;;5.80;5.40;;;22.30;91.70;;;;;;5013908;28;20417;-72
2022/09/06 03:45:39;;;;;;;9.97;8.43;;;22.20;91.80;;;;;;5032892;28;20413;-67
2022/09/06 03:48:05;;;;;;;6.70;6.10;;;22.30;92.00;;;;;;5032585;28;20846;-67
2022/09/06 03:50:31;;;;;;;6.27;5.77;;;22.20;92.10;;;;;;5041622;28;20488;-67
2022/09/06 03:52:57;;;;;;;7.13;6.60;;;22.20;92.40;;;;;;5052411;28;20499;-67
2022/09/06 03:55:23;;;;;;;6.47;5.97;;;22.20;92.20;;;;;;5051581;28;20425;-67
2022/09/06 03:57:48;;;;;;;7.80;7.23;;;22.20;92.10;;;;;;5052276;28;20241;-67
2022/09/06 04:00:14;;;;;;;7.57;6.87;;;22.00;91.60;;;;;;5030753;28;20181;-68
2022/09/06 04:02:40;;;;;;;8.20;7.50;;;21.90;91.90;;;;;;5031764;28;20181;-67
2022/09/06 04:05:06;;;;;;;6.90;6.40;;;21.80;92.20;;;;;;5047562;28;20420;-67
2022/09/06 04:07:32;;;;;;;9.87;8.97;;;21.80;92.50;;;;;;5049963;28;20220;-67
2022/09/06 04:09:58;;;;;;;8.43;7.67;;;21.90;92.50;;;;;;5052618;28;20412;-67
2022/09/06 04:12:23;;;;;;;7.20;6.50;;;21.90;92.60;;;;;;5051940;28;20181;-67
2022/09/06 04:14:49;;;;;;;6.90;6.50;;;21.70;92.80;;;;;;5052163;28;20178;-67
2022/09/06 04:17:15;;;;;;;7.07;6.57;;;21.60;93.40;;;;;;5037238;28;20589;-68
2022/09/06 04:19:40;;;;;;;8.50;7.77;;;21.70;93.50;;;;;;5032175;28;20529;-67
2022/09/06 04:22:06;;;;;;;8.40;7.70;;;21.70;93.30;;;;;;5043574;28;20190;-67
2022/09/06 04:24:32;;;;;;;7.33;6.67;;;21.70;93.50;;;;;;5044156;28;20242;-67
2022/09/06 04:26:58;;;;;;;9.17;8.40;;;21.80;93.90;;;;;;5051539;28;20181;-67
2022/09/06 04:29:24;;;;;;;9.00;8.07;;;21.80;93.50;;;;;;5051264;28;20170;-67
2022/09/06 04:31:49;;;;;;;7.20;6.47;;;21.80;93.50;;;;;;5048650;28;20443;-67
2022/09/06 04:34:15;;;;;;;6.60;6.20;;;21.90;93.60;;;;;;5051234;28;20173;-73
2022/09/06 04:36:41;;;;;;;7.30;6.67;;;21.90;93.30;;;;;;5050804;28;20634;-66
2022/09/06 04:39:07;;;;;;;7.80;7.10;;;22.00;93.50;;;;;;5051711;28;20185;-67
2022/09/06 04:41:33;;;;;;;6.10;5.47;;;22.00;93.60;;;;;;5051184;28;20465;-67
2022/09/06 04:43:58;;;;;;;8.80;8.20;;;22.10;93.90;;;;;;5051950;28;20633;-67
2022/09/06 04:46:27;;;;;;;9.00;8.30;;;22.10;93.60;;;;;;5039563;28;20218;-67
2022/09/06 04:48:53;;;;;;;6.10;5.60;;;22.20;93.90;;;;;;5048125;28;20178;-68
2022/09/06 04:51:20;;;;;;;6.83;6.23;;;22.20;94.20;;;;;;5031116;28;20482;-67
2022/09/06 04:53:46;;;;;;;7.80;7.00;;;22.20;94.30;;;;;;5031928;28;20907;-67
2022/09/06 04:56:15;;;;;;;5.07;4.67;;;22.30;94.60;;;;;;5031889;28;20417;-71
2022/09/06 04:58:41;;;;;;;5.50;5.20;;;22.30;94.70;;;;;;5034706;28;20543;-67
2022/09/06 05:01:07;;;;;;;6.80;6.30;;;22.20;94.60;;;;;;5043741;28;20432;-67
2022/09/06 05:03:33;;;;;;;5.57;5.27;;;22.30;94.70;;;;;;5022880;28;21039;-67
2022/09/06 05:06:07;;;;;;;7.50;7.00;;;22.30;94.70;;;;;;5048551;28;20214;-67
2022/09/06 05:08:36;;;;;;;6.30;5.90;;;22.30;94.70;;;;;;5047922;28;20948;-67
2022/09/06 05:11:01;;;;;;;8.23;7.73;;;22.30;94.80;;;;;;5044082;28;20607;-67
2022/09/06 05:13:27;;;;;;;8.50;7.80;;;22.30;95.00;;;;;;5046887;28;20497;-67
2022/09/06 05:15:53;;;;;;;7.13;6.57;;;22.30;94.70;;;;;;5053162;28;20182;-67
2022/09/06 05:18:19;;;;;;;7.07;6.57;;;22.20;94.60;;;;;;5041098;28;20981;-68
2022/09/06 05:20:53;;;;;;;5.83;5.50;;;22.20;94.80;;;;;;5051861;28;20189;-67
2022/09/06 05:23:20;;;;;;;6.13;5.53;;;22.20;94.80;;;;;;5045667;28;20189;-68
2022/09/06 05:25:46;;;;;;;9.27;8.77;;;22.20;95.00;;;;;;5052195;28;20455;-67
2022/09/06 05:28:12;;;;;;;7.33;6.73;;;22.20;95.20;;;;;;5055061;28;20416;-67
2022/09/06 05:30:38;;;;;;;7.10;6.40;;;22.20;95.20;;;;;;5049817;28;20439;-67
2022/09/06 05:33:04;;;;;;;5.97;5.57;;;22.20;95.50;;;;;;5035678;28;20429;-68
2022/09/06 05:35:30;;;;;;;7.13;6.73;;;22.20;95.60;;;;;;5037677;28;20174;-67
2022/09/06 05:37:55;;;;;;;6.03;5.60;;;22.20;96.00;;;;;;5053289;28;20236;-67
2022/09/06 05:40:21;;;;;;;6.90;6.30;;;22.20;96.00;;;;;;5039876;28;20436;-68
2022/09/06 05:42:47;;;;;;;8.47;7.90;;;22.20;97.40;;;;;;5038384;28;20570;-64
2022/09/06 05:45:12;;;;;;;7.23;6.63;;;22.30;97.30;;;;;;5051257;28;20174;-64
2022/09/06 05:47:38;;;;;;;7.13;6.63;;;22.40;96.70;;;;;;5051953;28;20624;-62
2022/09/06 05:50:05;;;;;;;7.77;7.07;;;22.60;97.60;;;;;;5035094;28;20463;-62
2022/09/06 05:52:33;;;;;;;6.17;5.60;;;22.60;95.90;;;;;;5034773;28;20241;-62
2022/09/06 05:54:59;;;;;;;6.63;6.10;;;22.60;95.60;;;;;;5035076;28;20405;-62
2022/09/06 05:57:25;;;;;;;6.37;5.83;;;22.50;95.60;;;;;;5034350;28;20447;-62
2022/09/06 05:59:52;;;;;;;7.40;6.70;;;22.40;95.40;;;;;;5036363;28;20507;-62
2022/09/06 06:02:19;;;;;;;6.80;5.93;;;22.30;95.40;;;;;;5054256;28;20545;-63
2022/09/06 06:04:45;;;;;;;12.37;6.23;;;22.30;95.70;;;;;;5054507;28;20535;-62
2022/09/06 06:07:11;;;;;;;6.80;6.10;;;22.20;95.80;;;;;;5054848;28;20419;-61
2022/09/06 06:09:37;;;;;;;6.87;5.70;;;22.20;96.30;;;;;;5037367;28;20807;-62
2022/09/06 06:12:03;;;;;;;8.77;8.00;;;22.10;96.60;;;;;;5045238;28;20181;-62
2022/09/06 06:14:29;;;;;;;6.10;5.73;;;22.10;96.50;;;;;;5053077;28;20176;-62
2022/09/06 06:16:54;;;;;;;6.37;5.77;;;22.10;95.90;;;;;;5054617;28;20404;-62
2022/09/06 06:19:20;;;;;;;7.03;5.90;;;22.00;95.80;;;;;;5053762;28;20223;-62
2022/09/06 06:21:46;;;;;;;7.00;5.07;;;22.00;95.70;;;;;;5036717;28;20174;-62
2022/09/06 06:24:11;;;;;;;5.33;4.93;;;22.10;95.30;;;;;;5052617;28;20526;-62
2022/09/06 06:26:37;;;;;;;5.27;4.87;;;22.00;95.40;;;;;;5052744;28;20445;-62
2022/09/06 06:29:06;;;;;;;6.60;6.00;;;22.10;95.50;;;;;;5054394;28;20675;-62
2022/09/06 06:31:33;;;;;;;6.33;5.50;;;22.10;95.50;;;;;;5053961;28;20396;-62
2022/09/06 06:34:01;;;;;;;6.27;5.77;;;22.10;95.40;;;;;;5054304;28;20943;-62
2022/09/06 06:36:30;;;;;;;6.23;5.63;;;22.20;95.30;;;;;;5052757;28;20550;-62
2022/09/06 06:38:56;;;;;;;5.97;5.40;;;22.20;95.20;;;;;;5039771;28;20911;-64
2022/09/06 06:41:24;;;;;;;6.23;5.60;;;22.20;95.10;;;;;;5039050;28;20428;-62
2022/09/06 06:43:55;;;;;;;10.30;6.70;;;22.30;95.00;;;;;;5041082;28;20967;-62
2022/09/06 06:46:23;;;;;;;9.60;5.50;;;22.30;95.20;;;;;;5048645;28;20719;-63
2022/09/06 06:48:49;;;;;;;7.80;5.70;;;22.30;94.70;;;;;;5040217;28;20417;-62
2022/09/06 06:51:19;;;;;;;7.77;6.50;;;22.40;94.70;;;;;;5034098;28;20947;-62
2022/09/06 06:53:49;;;;;;;6.53;5.77;;;22.40;94.80;;;;;;5034147;28;20166;-62
2022/09/06 06:56:19;;;;;;;6.57;5.80;;;22.50;94.60;;;;;;5033419;28;20428;-62
2022/09/06 06:58:47;;;;;;;9.60;5.53;;;22.50;94.50;;;;;;5033870;28;20446;-62
2022/09/06 07:01:17;;;;;;;5.13;4.63;;;22.60;94.50;;;;;;5036029;28;20516;-62
2022/09/06 07:03:42;;;;;;;8.80;6.40;;;22.70;94.50;;;;;;5033832;28;20448;-62
2022/09/06 07:06:08;;;;;;;10.70;6.40;;;22.70;94.30;;;;;;5037071;28;20426;-62
2022/09/06 07:08:35;;;;;;;7.93;7.20;;;22.80;94.50;;;;;;5039504;28;20244;-62
2022/09/06 07:11:01;;;;;;;5.90;5.50;;;22.90;94.20;;;;;;5038621;28;20566;-62
2022/09/06 07:13:27;;;;;;;5.57;5.03;;;22.90;93.90;;;;;;5047309;28;20429;-62
2022/09/06 07:16:06;;;;;;;7.17;6.67;;;23.00;93.90;;;;;;5051805;28;20482;-62
2022/09/06 07:18:31;;;;;;;6.40;5.90;;;23.00;93.90;;;;;;5051937;28;20197;-62
2022/09/06 07:20:57;;;;;;;4.70;4.30;;;23.10;93.70;;;;;;5053147;28;20412;-62
2022/09/06 07:23:24;;;;;;;4.80;4.40;;;23.10;93.40;;;;;;5052770;28;20228;-63
2022/09/06 07:25:49;;;;;;;6.03;5.63;;;23.10;93.10;;;;;;5053473;28;20173;-62
2022/09/06 07:28:15;;;;;;;6.97;6.37;;;23.10;93.10;;;;;;5053148;28;20416;-62
2022/09/06 07:30:41;;;;;;;8.27;7.33;;;23.10;93.30;;;;;;5029725;28;20488;-62
2022/09/06 07:33:07;;;;;;;7.07;6.40;;;23.00;93.70;;;;;;5033287;28;20199;-62
2022/09/06 07:35:33;;;;;;;10.40;7.10;;;23.10;93.90;;;;;;5032659;28;20540;-62
2022/09/06 07:38:00;;;;;;;7.10;6.50;;;23.20;93.40;;;;;;5033069;28;20202;-62
2022/09/06 07:40:28;;;;;;;7.83;7.17;;;23.30;93.30;;;;;;5032503;28;20409;-62
2022/09/06 07:42:59;;;;;;;6.80;6.30;;;23.30;92.90;;;;;;5033287;28;20405;-62
2022/09/06 07:45:26;;;;;;;9.40;5.50;;;23.40;93.00;;;;;;5032065;28;20762;-62
2022/09/06 07:48:00;;;;;;;6.00;5.60;;;23.50;92.50;;;;;;5032696;28;20424;-62
2022/09/06 07:50:27;;;;;;;5.37;4.97;;;23.60;92.60;;;;;;5036821;28;20460;-63
2022/09/06 07:52:53;;;;;;;7.03;5.83;;;23.70;92.20;;;;;;5032925;28;20859;-62
2022/09/06 07:55:19;;;;;;;5.00;4.60;;;23.80;92.30;;;;;;5034941;28;20488;-62
2022/09/06 07:57:45;;;;;;;5.30;4.90;;;23.80;91.10;;;;;;5038148;28;20233;-62
2022/09/06 08:00:11;;;;;;;4.67;4.40;;;23.90;90.40;;;;;;5047693;28;20178;-62
2022/09/06 08:02:37;;;;;;;5.00;4.70;;;23.90;90.00;;;;;;4985732;28;20202;-62
2022/09/06 08:05:03;;;;;;;4.93;4.63;;;23.90;89.40;;;;;;4991089;28;20414;-62
2022/09/06 08:07:29;;;;;;;4.67;4.47;;;24.00;90.60;;;;;;4990583;28;20547;-62
2022/09/06 08:09:55;;;;;;;4.67;4.47;;;24.00;88.60;;;;;;4990258;28;20410;-62
2022/09/06 08:12:21;;;;;;;6.50;5.80;;;24.00;89.00;;;;;;4988447;28;20183;-62
2022/09/06 08:14:46;;;;;;;4.20;3.90;;;24.20;90.00;;;;;;4988798;28;20198;-62
2022/09/06 08:17:12;;;;;;;7.80;7.20;;;24.30;90.00;;;;;;4972481;28;20495;-63
2022/09/06 08:19:38;;;;;;;4.90;4.37;;;24.50;90.40;;;;;;4972039;28;20223;-62
2022/09/06 08:22:03;;;;;;;4.00;3.73;;;24.60;89.50;;;;;;4970871;28;20239;-62
2022/09/06 08:24:30;;;;;;;5.00;4.80;;;24.70;88.70;;;;;;4970551;28;20181;-62
2022/09/06 08:26:55;;;;;;;4.00;3.80;;;24.80;86.70;;;;;;4971354;28;20555;-62
2022/09/06 08:29:21;;;;;;;5.10;4.90;;;24.80;86.40;;;;;;4923494;28;20408;-62
2022/09/06 08:31:47;;;;;;;4.30;4.00;;;24.80;83.90;;;;;;4970674;28;20715;-62
2022/09/06 08:34:13;;;;;;;3.70;3.50;;;24.90;84.10;;;;;;4977383;28;20295;-62
2022/09/06 08:36:39;;;;;;;4.10;3.80;;;25.00;83.20;;;;;;4990069;28;20187;-62
2022/09/06 08:39:08;;;;;;;6.20;6.00;;;25.10;82.90;;;;;;4994931;28;20246;-62
2022/09/06 08:41:47;;;;;;;4.50;4.30;;;25.10;81.80;;;;;;5031828;28;20908;-62
2022/09/06 08:44:35;;;;;;;5.10;4.90;;;25.30;83.00;;;;;;5032448;28;20873;-62
2022/09/06 08:47:07;;;;;;;3.07;2.97;;;25.30;79.10;;;;;;5032107;28;20405;-62
2022/09/06 08:49:40;;;;;;;4.73;4.43;;;25.30;78.60;;;;;;5017527;28;20397;-62
2022/09/06 08:52:29;;;;;;;3.50;3.40;;;25.40;79.40;;;;;;5036309;28;20805;-62
2022/09/06 08:54:57;;;;;;;3.10;2.60;;;25.60;79.40;;;;;;5036097;28;20401;-62
2022/09/06 08:57:26;;;;;;;4.60;4.50;;;25.60;77.70;;;;;;5036350;28;20547;-62
2022/09/06 08:59:59;;;;;;;3.03;2.93;;;25.70;77.50;;;;;;5036044;28;20418;-62
2022/09/06 09:02:26;;;;;;;3.50;3.30;;;25.80;77.40;;;;;;5026910;28;20936;-62
2022/09/06 09:05:01;;;;;;;4.60;4.40;;;25.90;76.90;;;;;;5044668;28;20514;-62
2022/09/06 09:07:26;;;;;;;4.53;4.23;;;26.00;76.30;;;;;;5056002;28;20401;-62
2022/09/06 09:09:56;;;;;;;3.50;3.30;;;26.10;76.50;;;;;;5055855;28;20448;-62
2022/09/06 09:12:23;;;;;;;2.70;2.60;;;26.20;75.30;;;;;;5055832;28;20404;-62
2022/09/06 09:14:54;;;;;;;5.20;5.00;;;26.40;75.30;;;;;;5054831;28;20420;-62
2022/09/06 09:17:26;;;;;;;4.20;3.90;;;26.50;74.20;;;;;;5053890;28;20440;-62
2022/09/06 09:19:52;;;;;;;3.40;3.20;;;26.70;73.50;;;;;;5048513;28;20446;-62
2022/09/06 09:22:19;;;;;;;4.00;3.17;;;26.80;72.40;;;;;;5037787;28;20400;-62
2022/09/06 09:24:47;;;;;;;3.30;3.00;;;27.00;71.40;;;;;;5054963;28;20205;-62
2022/09/06 09:27:16;;;;;;;3.43;3.23;;;27.20;70.90;;;;;;5055631;28;20494;-62
2022/09/06 09:29:54;;;;;;;3.73;3.60;;;27.50;72.20;;;;;;5037004;28;20436;-62
2022/09/06 09:32:41;;;;;;;3.17;2.97;;;27.70;70.80;;;;;;5055429;28;20427;-62
2022/09/06 09:35:41;;;;;;;4.17;4.07;;;28.00;67.30;;;;;;5055121;28;20750;-62
2022/09/06 09:38:09;;;;;;;4.43;3.50;;;28.20;67.40;;;;;;5055330;28;20542;-62
2022/09/06 09:40:51;;;;;;;4.47;4.27;;;28.50;65.10;;;;;;5054644;28;20404;-62
2022/09/06 09:43:19;;;;;;;3.50;3.30;;;28.80;64.90;;;;;;5037534;28;20833;-62
2022/09/06 09:45:45;;;;;;;2.90;2.80;;;29.00;63.40;;;;;;5054634;28;20507;-62
2022/09/06 09:48:22;;;;;;;3.03;2.93;;;29.20;62.30;;;;;;5053249;28;20494;-62
2022/09/06 09:50:48;;;;;;;3.23;3.00;;;29.40;62.10;;;;;;5054451;28;20447;-62
2022/09/06 09:53:17;;;;;;;5.50;4.87;;;29.60;61.80;;;;;;5054994;28;20435;-62
2022/09/06 09:55:44;;;;;;;3.10;2.80;;;29.90;59.20;;;;;;5054340;28;20174;-62
2022/09/06 09:58:35;;;;;;;3.10;2.90;;;30.10;59.40;;;;;;5054840;28;20448;-63
2022/09/06 10:01:14;;;;;;;3.83;3.73;;;30.30;58.60;;;;;;5054359;28;20531;-62
2022/09/06 10:03:40;;;;;;;2.80;2.70;;;30.50;57.90;;;;;;5054351;28;20860;-62
2022/09/06 10:06:10;;;;;;;2.47;2.37;;;30.70;56.70;;;;;;5054755;28;20392;-62
2022/09/06 10:08:41;;;;;;;5.40;5.10;;;30.80;56.30;;;;;;5054124;28;20424;-62
2022/09/06 10:11:12;;;;;;;4.83;4.53;;;31.00;57.20;;;;;;5054996;28;20399;-62
2022/09/06 10:13:37;;;;;;;3.60;3.40;;;31.10;55.10;;;;;;5054196;28;20742;-62
2022/09/06 10:16:03;;;;;;;2.80;2.70;;;31.30;55.80;;;;;;5054654;28;20408;-62
2022/09/06 10:18:34;;;;;;;3.10;2.90;;;31.50;55.40;;;;;;5045122;28;20229;-62
2022/09/06 10:21:06;;;;;;;3.23;3.03;;;31.70;55.90;;;;;;5034630;28;20520;-62
2022/09/06 10:24:03;;;;;;;4.20;3.90;;;31.70;55.30;;;;;;5034692;28;20420;-67
2022/09/06 10:26:50;;;;;;;5.13;4.93;;;31.90;54.70;;;;;;5034524;28;20453;-62
2022/09/06 10:29:28;;;;;;;3.73;3.47;;;32.20;55.10;;;;;;5034599;28;20394;-63
2022/09/06 10:32:05;;;;;;;3.23;3.13;;;32.40;53.10;;;;;;4972684;28;20403;-62
2022/09/06 10:35:13;;;;;;;5.90;5.53;;;32.40;52.70;;;;;;4973346;28;20412;-62
2022/09/06 10:38:15;;;;;;;5.63;4.37;;;32.50;52.70;;;;;;4972548;28;20447;-63
2022/09/06 10:41:07;;;;;;;4.20;4.03;;;32.60;52.40;;;;;;4972826;28;20445;-63
2022/09/06 10:43:49;;;;;;;3.93;3.83;;;32.70;52.20;;;;;;4973450;28;20793;-62
2022/09/06 10:46:20;;;;;;;4.27;4.10;;;32.80;51.90;;;;;;4973097;28;20427;-62
2022/09/06 10:48:47;;;;;;;3.67;3.47;;;32.90;51.80;;;;;;4985183;28;20837;-63
2022/09/06 10:51:40;;;;;;;3.60;3.50;;;33.00;51.20;;;;;;5023742;28;20460;-62
2022/09/06 10:54:16;;;;;;;4.47;4.30;;;33.10;51.00;;;;;;5031729;28;20932;-62
2022/09/06 10:57:01;;;;;;;4.90;4.60;;;33.10;50.60;;;;;;5031023;28;20916;-62
2022/09/06 10:59:33;;;;;;;3.80;3.47;;;33.10;50.60;;;;;;5031827;28;20988;-62
2022/09/06 11:02:24;;;;;;;3.63;3.43;;;33.10;50.70;;;;;;5034108;28;20808;-62
2022/09/06 11:04:50;;;;;;;4.47;4.17;;;33.10;51.80;;;;;;5053144;28;20396;-62
2022/09/06 11:07:30;;;;;;;3.60;3.50;;;33.10;50.60;;;;;;5053678;28;20470;-62
2022/09/06 11:10:28;;;;;;;4.07;3.87;;;33.10;49.80;;;;;;5053029;28;20420;-62
2022/09/06 11:13:10;;;;;;;4.00;3.90;;;33.10;49.90;;;;;;5053007;28;20444;-62
2022/09/06 11:15:42;;;;;;;4.00;3.80;;;33.20;49.80;;;;;;5061140;28;20439;-63
2022/09/06 11:18:31;;;;;;;4.30;4.10;;;33.10;50.00;;;;;;5073534;28;20445;-62
2022/09/06 11:21:14;;;;;;;4.07;3.80;;;33.20;50.10;;;;;;5072797;28;20766;-62
2022/09/06 11:23:51;;;;;;;4.10;4.00;;;33.20;49.80;;;;;;5072657;28;20801;-62
2022/09/06 11:26:28;;;;;;;3.50;3.30;;;33.20;50.20;;;;;;5071563;28;20453;-62
2022/09/06 11:28:56;;;;;;;3.77;3.50;;;33.30;49.90;;;;;;5072315;28;20928;-62
2022/09/06 11:31:33;;;;;;;3.30;3.20;;;33.30;50.00;;;;;;5072868;28;20406;-62
2022/09/06 11:34:29;;;;;;;4.17;3.97;;;33.40;49.10;;;;;;5071611;28;20462;-62
2022/09/06 11:36:58;;;;;;;3.50;3.30;;;33.50;48.50;;;;;;5072471;28;20395;-62
2022/09/06 11:39:41;;;;;;;3.93;3.73;;;33.40;46.80;;;;;;5073107;28;20415;-62
2022/09/06 11:42:44;;;;;;;4.30;4.00;;;33.30;48.00;;;;;;5072915;28;20404;-62
2022/09/06 11:45:09;;;;;;;3.90;3.50;;;33.40;49.30;;;;;;5072980;28;20415;-62
2022/09/06 11:47:46;;;;;;;4.07;3.80;;;33.50;48.70;;;;;;5073035;28;20891;-62
2022/09/06 11:50:20;;;;;;;4.27;3.97;;;33.60;49.00;;;;;;5065020;28;20549;-62
2022/09/06 11:53:07;;;;;;;4.70;4.60;;;33.60;48.50;;;;;;5052299;28;20403;-62
2022/09/06 11:55:42;;;;;;;4.27;4.07;;;33.60;49.50;;;;;;5051084;28;20454;-63
2022/09/06 11:58:16;;;;;;;6.33;6.00;;;33.70;49.00;;;;;;5052437;28;20469;-62
2022/09/06 12:01:05;;;;;;;4.23;4.03;;;33.80;49.00;;;;;;5052260;28;20423;-62
2022/09/06 12:03:51;;;;;;;4.00;3.80;;;33.80;48.20;;;;;;5052479;28;20420;-62
2022/09/06 12:07:02;;;;;;;5.00;4.70;;;33.90;48.30;;;;;;5017661;28;20412;-62
2022/09/06 12:09:29;;;;;;;3.90;3.70;;;33.90;48.70;;;;;;5052540;28;20485;-62
2022/09/06 12:11:56;;;;;;;3.90;3.70;;;33.90;48.00;;;;;;5050106;28;20432;-62
2022/09/06 12:14:42;;;;;;;5.60;5.40;;;33.90;48.50;;;;;;5052622;28;20412;-62
2022/09/06 12:17:08;;;;;;;3.30;3.20;;;33.80;48.50;;;;;;5052466;28;20419;-62
2022/09/06 12:19:45;;;;;;;3.10;3.00;;;33.90;48.20;;;;;;5034653;28;20417;-62
2022/09/06 12:22:32;;;;;;;3.20;3.00;;;33.80;47.50;;;;;;5052051;28;20813;-62
2022/09/06 12:25:02;;;;;;;4.20;4.00;;;33.60;47.20;;;;;;5051635;28;20396;-62
2022/09/06 12:27:43;;;;;;;3.80;3.60;;;33.50;48.30;;;;;;5052509;28;20946;-62
2022/09/06 12:30:12;;;;;;;3.80;3.70;;;33.50;47.50;;;;;;5052723;28;20466;-62
2022/09/06 12:32:43;;;;;;;4.30;3.80;;;33.40;47.50;;;;;;5052377;28;20415;-62
2022/09/06 12:35:16;;;;;;;4.60;4.30;;;33.30;47.70;;;;;;5052319;28;20462;-62
2022/09/06 12:38:01;;;;;;;3.97;3.57;;;33.20;47.40;;;;;;5051648;28;20440;-62
2022/09/06 12:40:34;;;;;;;6.30;6.00;;;33.00;48.00;;;;;;5052332;28;20432;-62
2022/09/06 12:43:02;;;;;;;5.17;4.97;;;33.00;46.90;;;;;;5048558;28;20927;-62
2022/09/06 12:45:28;;;;;;;4.50;4.20;;;32.80;47.00;;;;;;5052204;28;20412;-62
2022/09/06 12:48:08;;;;;;;6.10;5.80;;;32.70;47.70;;;;;;5000122;28;20420;-62
2022/09/06 12:50:34;;;;;;;4.13;3.97;;;32.50;47.90;;;;;;5051915;28;20299;-62
2022/09/06 12:53:02;;;;;;;3.37;3.20;;;32.40;48.40;;;;;;5051395;28;21087;-63
2022/09/06 12:55:32;;;;;;;4.27;3.97;;;32.30;49.30;;;;;;5051893;28;20416;-62
2022/09/06 12:58:10;;;;;;;3.63;3.53;;;32.30;48.70;;;;;;5051641;28;20454;-62
2022/09/06 13:00:46;;;;;;;3.53;3.43;;;32.30;48.40;;;;;;5052478;28;20448;-62
2022/09/06 13:03:33;;;;;;;4.60;4.30;;;32.30;49.20;;;;;;5052142;28;20411;-62
2022/09/06 13:06:03;;;;;;;3.87;3.60;;;32.30;48.80;;;;;;5051547;28;20392;-62